sensor_id;sensor_type;location;lat;lon;timestamp;P1;durP1;ratioP1;P2;durP2;ratioP2
38653;SDS011;24413;52.450;20.706;2022-11-15T00:00:13;35.27;;;22.10;;
38653;SDS011;24413;52.450;20.706;2022-11-15T00:02:38;30.10;;;20.85;;
38653;SDS011;24413;52.450;20.706;2022-11-15T00:05:03;32.60;;;22.33;;
38653;SDS011;24413;52.450;20.706;2022-11-15T00:07:29;30.13;;;21.77;;
38653;SDS011;24413;52.450;20.706;2022-11-15T00:09:54;30.92;;;21.60;;
38653;SDS011;24413;52.450;20.706;2022-11-15T00:12:19;32.17;;;21.03;;
38653;SDS011;24413;52.450;20.706;2022-11-15T00:14:44;33.23;;;21.63;;
38653;SDS011;24413;52.450;20.706;2022-11-15T00:17:09;32.33;;;21.63;;
38653;SDS011;24413;52.450;20.706;2022-11-15T00:19:35;33.83;;;21.30;;
38653;SDS011;24413;52.450;20.706;2022-11-15T00:22:00;33.90;;;22.17;;
38653;SDS011;24413;52.450;20.706;2022-11-15T00:24:25;32.78;;;20.40;;
38653;SDS011;24413;52.450;20.706;2022-11-15T00:26:50;30.70;;;21.43;;
38653;SDS011;24413;52.450;20.706;2022-11-15T00:29:15;32.30;;;22.13;;
38653;SDS011;24413;52.450;20.706;2022-11-15T00:31:41;38.00;;;22.27;;
38653;SDS011;24413;52.450;20.706;2022-11-15T00:34:06;37.57;;;23.60;;
38653;SDS011;24413;52.450;20.706;2022-11-15T00:36:34;35.83;;;23.23;;
38653;SDS011;24413;52.450;20.706;2022-11-15T00:38:59;36.42;;;24.02;;
38653;SDS011;24413;52.450;20.706;2022-11-15T00:41:25;33.20;;;22.67;;
38653;SDS011;24413;52.450;20.706;2022-11-15T00:43:50;34.67;;;22.63;;
38653;SDS011;24413;52.450;20.706;2022-11-15T00:46:15;33.37;;;23.27;;
38653;SDS011;24413;52.450;20.706;2022-11-15T00:48:40;41.43;;;24.13;;
38653;SDS011;24413;52.450;20.706;2022-11-15T00:51:05;42.15;;;23.77;;
38653;SDS011;24413;52.450;20.706;2022-11-15T00:53:30;40.53;;;23.30;;
38653;SDS011;24413;52.450;20.706;2022-11-15T00:55:56;45.40;;;25.75;;
38653;SDS011;24413;52.450;20.706;2022-11-15T00:58:21;37.53;;;24.43;;
38653;SDS011;24413;52.450;20.706;2022-11-15T01:00:46;44.20;;;24.90;;
38653;SDS011;24413;52.450;20.706;2022-11-15T01:03:11;40.75;;;24.95;;
38653;SDS011;24413;52.450;20.706;2022-11-15T01:05:37;34.57;;;23.20;;
38653;SDS011;24413;52.450;20.706;2022-11-15T01:08:02;38.95;;;25.08;;
38653;SDS011;24413;52.450;20.706;2022-11-15T01:10:28;38.55;;;24.90;;
38653;SDS011;24413;52.450;20.706;2022-11-15T01:12:53;34.97;;;24.03;;
38653;SDS011;24413;52.450;20.706;2022-11-15T01:15:18;40.67;;;24.93;;
38653;SDS011;24413;52.450;20.706;2022-11-15T01:17:43;37.77;;;24.53;;
38653;SDS011;24413;52.450;20.706;2022-11-15T01:20:09;40.15;;;25.52;;
38653;SDS011;24413;52.450;20.706;2022-11-15T01:22:34;40.88;;;26.05;;
38653;SDS011;24413;52.450;20.706;2022-11-15T01:24:59;40.20;;;26.27;;
38653;SDS011;24413;52.450;20.706;2022-11-15T01:27:24;41.77;;;25.93;;
38653;SDS011;24413;52.450;20.706;2022-11-15T01:29:50;40.83;;;27.60;;
38653;SDS011;24413;52.450;20.706;2022-11-15T01:32:15;44.03;;;26.95;;
38653;SDS011;24413;52.450;20.706;2022-11-15T01:34:40;50.55;;;29.33;;
38653;SDS011;24413;52.450;20.706;2022-11-15T01:37:05;45.30;;;29.93;;
38653;SDS011;24413;52.450;20.706;2022-11-15T01:39:31;49.45;;;30.92;;
38653;SDS011;24413;52.450;20.706;2022-11-15T01:41:56;50.63;;;32.00;;
38653;SDS011;24413;52.450;20.706;2022-11-15T01:46:55;54.55;;;32.67;;
38653;SDS011;24413;52.450;20.706;2022-11-15T01:49:21;52.95;;;33.70;;
38653;SDS011;24413;52.450;20.706;2022-11-15T01:51:47;47.35;;;32.72;;
38653;SDS011;24413;52.450;20.706;2022-11-15T01:54:19;58.85;;;36.35;;
38653;SDS011;24413;52.450;20.706;2022-11-15T01:57:08;55.90;;;35.78;;
38653;SDS011;24413;52.450;20.706;2022-11-15T01:59:31;62.70;;;36.70;;
38653;SDS011;24413;52.450;20.706;2022-11-15T02:01:56;64.35;;;38.42;;
38653;SDS011;24413;52.450;20.706;2022-11-15T02:04:26;61.28;;;37.28;;
38653;SDS011;24413;52.450;20.706;2022-11-15T02:06:52;61.67;;;38.58;;
38653;SDS011;24413;52.450;20.706;2022-11-15T02:09:18;56.40;;;37.22;;
38653;SDS011;24413;52.450;20.706;2022-11-15T02:11:43;64.07;;;40.43;;
38653;SDS011;24413;52.450;20.706;2022-11-15T02:14:09;69.63;;;41.35;;
38653;SDS011;24413;52.450;20.706;2022-11-15T02:16:47;69.70;;;39.90;;
38653;SDS011;24413;52.450;20.706;2022-11-15T02:21:51;65.63;;;39.65;;
38653;SDS011;24413;52.450;20.706;2022-11-15T02:27:04;66.13;;;38.83;;
38653;SDS011;24413;52.450;20.706;2022-11-15T02:39:50;69.38;;;43.08;;
38653;SDS011;24413;52.450;20.706;2022-11-15T02:42:18;69.30;;;42.97;;
38653;SDS011;24413;52.450;20.706;2022-11-15T02:45:03;74.00;;;41.20;;
38653;SDS011;24413;52.450;20.706;2022-11-15T02:47:30;78.63;;;42.40;;
38653;SDS011;24413;52.450;20.706;2022-11-15T02:49:57;70.30;;;41.92;;
38653;SDS011;24413;52.450;20.706;2022-11-15T02:52:24;76.85;;;43.70;;
38653;SDS011;24413;52.450;20.706;2022-11-15T02:57:20;67.05;;;39.40;;
38653;SDS011;24413;52.450;20.706;2022-11-15T03:04:56;68.13;;;40.63;;
38653;SDS011;24413;52.450;20.706;2022-11-15T03:07:29;70.50;;;42.45;;
38653;SDS011;24413;52.450;20.706;2022-11-15T03:15:34;72.03;;;41.92;;
38653;SDS011;24413;52.450;20.706;2022-11-15T03:18:04;69.68;;;43.33;;
38653;SDS011;24413;52.450;20.706;2022-11-15T03:20:30;78.22;;;45.30;;
38653;SDS011;24413;52.450;20.706;2022-11-15T03:22:56;77.00;;;44.38;;
38653;SDS011;24413;52.450;20.706;2022-11-15T03:25:24;71.18;;;44.47;;
38653;SDS011;24413;52.450;20.706;2022-11-15T03:27:52;77.30;;;44.47;;
38653;SDS011;24413;52.450;20.706;2022-11-15T03:30:18;72.70;;;45.50;;
38653;SDS011;24413;52.450;20.706;2022-11-15T03:32:45;71.13;;;43.72;;
38653;SDS011;24413;52.450;20.706;2022-11-15T03:35:15;67.53;;;41.33;;
38653;SDS011;24413;52.450;20.706;2022-11-15T03:37:57;71.85;;;42.88;;
38653;SDS011;24413;52.450;20.706;2022-11-15T03:40:27;76.43;;;44.38;;
38653;SDS011;24413;52.450;20.706;2022-11-15T03:43:00;78.38;;;44.00;;
38653;SDS011;24413;52.450;20.706;2022-11-15T03:45:31;73.90;;;44.88;;
38653;SDS011;24413;52.450;20.706;2022-11-15T03:48:10;75.45;;;44.45;;
38653;SDS011;24413;52.450;20.706;2022-11-15T03:50:38;80.07;;;44.03;;
38653;SDS011;24413;52.450;20.706;2022-11-15T03:53:03;79.50;;;44.95;;
38653;SDS011;24413;52.450;20.706;2022-11-15T03:55:31;79.20;;;45.72;;
38653;SDS011;24413;52.450;20.706;2022-11-15T03:57:57;72.82;;;43.20;;
38653;SDS011;24413;52.450;20.706;2022-11-15T04:00:23;73.82;;;42.58;;
38653;SDS011;24413;52.450;20.706;2022-11-15T04:02:49;76.45;;;42.58;;
38653;SDS011;24413;52.450;20.706;2022-11-15T04:05:14;77.32;;;43.05;;
38653;SDS011;24413;52.450;20.706;2022-11-15T04:07:39;91.63;;;44.97;;
38653;SDS011;24413;52.450;20.706;2022-11-15T04:10:04;81.33;;;46.57;;
38653;SDS011;24413;52.450;20.706;2022-11-15T04:12:34;85.30;;;44.65;;
38653;SDS011;24413;52.450;20.706;2022-11-15T04:15:12;75.53;;;44.15;;
38653;SDS011;24413;52.450;20.706;2022-11-15T04:17:42;80.25;;;46.30;;
38653;SDS011;24413;52.450;20.706;2022-11-15T04:20:09;78.93;;;45.47;;
38653;SDS011;24413;52.450;20.706;2022-11-15T04:22:54;82.97;;;44.78;;
38653;SDS011;24413;52.450;20.706;2022-11-15T04:25:38;74.65;;;41.60;;
38653;SDS011;24413;52.450;20.706;2022-11-15T04:28:03;83.68;;;43.42;;
38653;SDS011;24413;52.450;20.706;2022-11-15T04:30:28;77.72;;;44.05;;
38653;SDS011;24413;52.450;20.706;2022-11-15T04:32:54;75.40;;;43.20;;
38653;SDS011;24413;52.450;20.706;2022-11-15T04:35:19;80.63;;;42.70;;
38653;SDS011;24413;52.450;20.706;2022-11-15T04:37:44;78.63;;;41.23;;
38653;SDS011;24413;52.450;20.706;2022-11-15T04:40:09;75.80;;;41.97;;
38653;SDS011;24413;52.450;20.706;2022-11-15T04:42:34;71.32;;;40.85;;
38653;SDS011;24413;52.450;20.706;2022-11-15T04:45:00;78.43;;;40.93;;
38653;SDS011;24413;52.450;20.706;2022-11-15T04:47:25;73.03;;;39.95;;
38653;SDS011;24413;52.450;20.706;2022-11-15T04:49:50;83.83;;;42.47;;
38653;SDS011;24413;52.450;20.706;2022-11-15T04:52:15;81.63;;;40.70;;
38653;SDS011;24413;52.450;20.706;2022-11-15T04:54:40;80.47;;;44.13;;
38653;SDS011;24413;52.450;20.706;2022-11-15T04:57:07;84.15;;;42.15;;
38653;SDS011;24413;52.450;20.706;2022-11-15T04:59:32;85.20;;;42.50;;
38653;SDS011;24413;52.450;20.706;2022-11-15T05:01:57;76.37;;;42.20;;
38653;SDS011;24413;52.450;20.706;2022-11-15T05:04:22;87.30;;;42.10;;
38653;SDS011;24413;52.450;20.706;2022-11-15T05:06:48;79.73;;;40.67;;
38653;SDS011;24413;52.450;20.706;2022-11-15T05:09:14;75.35;;;42.08;;
38653;SDS011;24413;52.450;20.706;2022-11-15T05:11:39;77.88;;;42.42;;
38653;SDS011;24413;52.450;20.706;2022-11-15T05:14:05;78.90;;;41.28;;
38653;SDS011;24413;52.450;20.706;2022-11-15T05:16:30;81.03;;;43.97;;
38653;SDS011;24413;52.450;20.706;2022-11-15T05:18:55;78.72;;;45.00;;
38653;SDS011;24413;52.450;20.706;2022-11-15T05:21:21;80.95;;;44.17;;
38653;SDS011;24413;52.450;20.706;2022-11-15T05:23:46;87.13;;;45.58;;
38653;SDS011;24413;52.450;20.706;2022-11-15T05:26:12;92.90;;;46.07;;
38653;SDS011;24413;52.450;20.706;2022-11-15T05:28:37;92.75;;;46.60;;
38653;SDS011;24413;52.450;20.706;2022-11-15T05:31:03;85.43;;;45.03;;
38653;SDS011;24413;52.450;20.706;2022-11-15T05:33:28;86.40;;;44.42;;
38653;SDS011;24413;52.450;20.706;2022-11-15T05:36:02;91.68;;;43.40;;
38653;SDS011;24413;52.450;20.706;2022-11-15T05:38:29;93.22;;;46.45;;
38653;SDS011;24413;52.450;20.706;2022-11-15T05:40:54;89.30;;;45.38;;
38653;SDS011;24413;52.450;20.706;2022-11-15T05:43:20;89.18;;;45.05;;
38653;SDS011;24413;52.450;20.706;2022-11-15T05:45:45;80.75;;;41.97;;
38653;SDS011;24413;52.450;20.706;2022-11-15T05:48:10;84.45;;;46.38;;
38653;SDS011;24413;52.450;20.706;2022-11-15T05:50:36;81.03;;;43.25;;
38653;SDS011;24413;52.450;20.706;2022-11-15T05:53:03;84.20;;;43.35;;
38653;SDS011;24413;52.450;20.706;2022-11-15T05:55:28;83.55;;;43.97;;
38653;SDS011;24413;52.450;20.706;2022-11-15T05:57:53;93.75;;;45.92;;
38653;SDS011;24413;52.450;20.706;2022-11-15T06:00:19;86.40;;;42.23;;
38653;SDS011;24413;52.450;20.706;2022-11-15T06:02:44;90.72;;;47.42;;
38653;SDS011;24413;52.450;20.706;2022-11-15T06:05:09;90.63;;;46.97;;
38653;SDS011;24413;52.450;20.706;2022-11-15T06:07:34;94.33;;;48.23;;
38653;SDS011;24413;52.450;20.706;2022-11-15T06:09:59;96.27;;;45.43;;
38653;SDS011;24413;52.450;20.706;2022-11-15T06:12:25;92.27;;;44.43;;
38653;SDS011;24413;52.450;20.706;2022-11-15T06:14:50;92.17;;;46.73;;
38653;SDS011;24413;52.450;20.706;2022-11-15T06:17:15;105.47;;;48.63;;
38653;SDS011;24413;52.450;20.706;2022-11-15T06:19:41;94.82;;;50.53;;
38653;SDS011;24413;52.450;20.706;2022-11-15T06:22:06;83.93;;;44.00;;
38653;SDS011;24413;52.450;20.706;2022-11-15T06:24:32;101.93;;;50.83;;
38653;SDS011;24413;52.450;20.706;2022-11-15T06:26:57;103.85;;;49.58;;
38653;SDS011;24413;52.450;20.706;2022-11-15T06:29:22;105.50;;;46.67;;
38653;SDS011;24413;52.450;20.706;2022-11-15T06:31:47;109.77;;;50.27;;
38653;SDS011;24413;52.450;20.706;2022-11-15T06:34:13;103.17;;;48.87;;
38653;SDS011;24413;52.450;20.706;2022-11-15T06:36:38;107.23;;;48.83;;
38653;SDS011;24413;52.450;20.706;2022-11-15T06:39:03;97.00;;;43.50;;
38653;SDS011;24413;52.450;20.706;2022-11-15T06:41:29;101.68;;;45.60;;
38653;SDS011;24413;52.450;20.706;2022-11-15T06:43:54;111.03;;;49.20;;
38653;SDS011;24413;52.450;20.706;2022-11-15T06:46:19;104.13;;;49.47;;
38653;SDS011;24413;52.450;20.706;2022-11-15T06:48:44;91.00;;;44.97;;
38653;SDS011;24413;52.450;20.706;2022-11-15T06:51:09;113.22;;;48.10;;
38653;SDS011;24413;52.450;20.706;2022-11-15T06:53:35;116.35;;;51.15;;
38653;SDS011;24413;52.450;20.706;2022-11-15T06:56:00;114.23;;;53.50;;
38653;SDS011;24413;52.450;20.706;2022-11-15T06:58:26;119.25;;;54.47;;
38653;SDS011;24413;52.450;20.706;2022-11-15T07:00:51;125.50;;;53.08;;
38653;SDS011;24413;52.450;20.706;2022-11-15T07:03:16;117.40;;;53.17;;
38653;SDS011;24413;52.450;20.706;2022-11-15T07:05:41;91.00;;;43.20;;
38653;SDS011;24413;52.450;20.706;2022-11-15T07:08:07;111.47;;;54.40;;
38653;SDS011;24413;52.450;20.706;2022-11-15T07:10:32;110.57;;;52.33;;
38653;SDS011;24413;52.450;20.706;2022-11-15T07:12:57;108.67;;;47.03;;
38653;SDS011;24413;52.450;20.706;2022-11-15T07:15:23;97.90;;;45.23;;
38653;SDS011;24413;52.450;20.706;2022-11-15T07:17:49;103.72;;;48.40;;
38653;SDS011;24413;52.450;20.706;2022-11-15T07:20:14;88.10;;;39.55;;
38653;SDS011;24413;52.450;20.706;2022-11-15T07:22:40;131.48;;;52.08;;
38653;SDS011;24413;52.450;20.706;2022-11-15T07:25:05;227.98;;;110.07;;
38653;SDS011;24413;52.450;20.706;2022-11-15T07:27:31;297.50;;;146.23;;
38653;SDS011;24413;52.450;20.706;2022-11-15T07:29:56;232.20;;;102.72;;
38653;SDS011;24413;52.450;20.706;2022-11-15T07:32:21;263.50;;;115.03;;
38653;SDS011;24413;52.450;20.706;2022-11-15T07:34:46;183.00;;;89.70;;
38653;SDS011;24413;52.450;20.706;2022-11-15T07:37:12;172.33;;;72.87;;
38653;SDS011;24413;52.450;20.706;2022-11-15T07:39:37;114.82;;;53.35;;
38653;SDS011;24413;52.450;20.706;2022-11-15T07:42:02;105.53;;;42.38;;
38653;SDS011;24413;52.450;20.706;2022-11-15T07:44:46;195.95;;;97.22;;
38653;SDS011;24413;52.450;20.706;2022-11-15T07:47:11;156.57;;;74.37;;
38653;SDS011;24413;52.450;20.706;2022-11-15T07:49:37;144.77;;;64.40;;
38653;SDS011;24413;52.450;20.706;2022-11-15T07:52:02;134.70;;;57.65;;
38653;SDS011;24413;52.450;20.706;2022-11-15T07:54:27;153.23;;;72.65;;
38653;SDS011;24413;52.450;20.706;2022-11-15T07:56:52;107.10;;;43.83;;
38653;SDS011;24413;52.450;20.706;2022-11-15T07:59:17;81.37;;;37.60;;
38653;SDS011;24413;52.450;20.706;2022-11-15T08:01:44;96.45;;;45.03;;
38653;SDS011;24413;52.450;20.706;2022-11-15T08:04:10;124.77;;;53.50;;
38653;SDS011;24413;52.450;20.706;2022-11-15T08:06:35;138.38;;;62.53;;
38653;SDS011;24413;52.450;20.706;2022-11-15T08:09:00;113.22;;;44.83;;
38653;SDS011;24413;52.450;20.706;2022-11-15T08:11:25;175.23;;;87.40;;
38653;SDS011;24413;52.450;20.706;2022-11-15T08:13:51;147.67;;;58.53;;
38653;SDS011;24413;52.450;20.706;2022-11-15T08:16:16;135.15;;;57.22;;
38653;SDS011;24413;52.450;20.706;2022-11-15T08:18:41;140.57;;;65.68;;
38653;SDS011;24413;52.450;20.706;2022-11-15T08:21:08;134.57;;;59.57;;
38653;SDS011;24413;52.450;20.706;2022-11-15T08:23:34;157.07;;;64.97;;
38653;SDS011;24413;52.450;20.706;2022-11-15T08:26:00;119.47;;;59.40;;
38653;SDS011;24413;52.450;20.706;2022-11-15T08:28:25;157.77;;;43.85;;
38653;SDS011;24413;52.450;20.706;2022-11-15T08:30:51;123.93;;;39.70;;
38653;SDS011;24413;52.450;20.706;2022-11-15T08:33:16;94.07;;;41.37;;
38653;SDS011;24413;52.450;20.706;2022-11-15T08:35:41;117.47;;;40.80;;
38653;SDS011;24413;52.450;20.706;2022-11-15T08:38:07;107.78;;;42.42;;
38653;SDS011;24413;52.450;20.706;2022-11-15T08:40:32;97.03;;;43.20;;
38653;SDS011;24413;52.450;20.706;2022-11-15T08:42:57;98.00;;;39.13;;
38653;SDS011;24413;52.450;20.706;2022-11-15T08:45:24;96.45;;;41.92;;
38653;SDS011;24413;52.450;20.706;2022-11-15T08:47:49;114.93;;;52.07;;
38653;SDS011;24413;52.450;20.706;2022-11-15T08:50:14;102.23;;;41.70;;
38653;SDS011;24413;52.450;20.706;2022-11-15T08:52:39;99.70;;;44.22;;
38653;SDS011;24413;52.450;20.706;2022-11-15T08:55:05;96.30;;;42.30;;
38653;SDS011;24413;52.450;20.706;2022-11-15T08:57:30;91.47;;;39.70;;
38653;SDS011;24413;52.450;20.706;2022-11-15T08:59:56;97.47;;;40.13;;
38653;SDS011;24413;52.450;20.706;2022-11-15T09:02:21;97.57;;;40.65;;
38653;SDS011;24413;52.450;20.706;2022-11-15T09:04:46;88.25;;;42.85;;
38653;SDS011;24413;52.450;20.706;2022-11-15T09:07:11;92.95;;;40.45;;
38653;SDS011;24413;52.450;20.706;2022-11-15T09:09:38;101.97;;;44.17;;
38653;SDS011;24413;52.450;20.706;2022-11-15T09:12:04;106.25;;;46.22;;
38653;SDS011;24413;52.450;20.706;2022-11-15T09:14:29;111.95;;;48.53;;
38653;SDS011;24413;52.450;20.706;2022-11-15T09:16:55;100.87;;;49.60;;
38653;SDS011;24413;52.450;20.706;2022-11-15T09:19:20;129.85;;;54.97;;
38653;SDS011;24413;52.450;20.706;2022-11-15T09:21:45;114.60;;;52.35;;
38653;SDS011;24413;52.450;20.706;2022-11-15T09:24:11;146.20;;;71.97;;
38653;SDS011;24413;52.450;20.706;2022-11-15T09:26:36;100.53;;;48.17;;
38653;SDS011;24413;52.450;20.706;2022-11-15T09:29:01;105.03;;;46.17;;
38653;SDS011;24413;52.450;20.706;2022-11-15T09:31:27;107.47;;;45.40;;
38653;SDS011;24413;52.450;20.706;2022-11-15T09:33:52;110.50;;;50.92;;
38653;SDS011;24413;52.450;20.706;2022-11-15T09:36:17;110.53;;;49.40;;
38653;SDS011;24413;52.450;20.706;2022-11-15T09:38:43;140.95;;;61.55;;
38653;SDS011;24413;52.450;20.706;2022-11-15T09:41:33;132.80;;;59.00;;
38653;SDS011;24413;52.450;20.706;2022-11-15T09:43:58;109.13;;;48.33;;
38653;SDS011;24413;52.450;20.706;2022-11-15T09:46:46;111.15;;;50.90;;
38653;SDS011;24413;52.450;20.706;2022-11-15T09:49:15;118.50;;;56.42;;
38653;SDS011;24413;52.450;20.706;2022-11-15T09:51:41;105.63;;;53.03;;
38653;SDS011;24413;52.450;20.706;2022-11-15T09:54:16;106.28;;;60.25;;
38653;SDS011;24413;52.450;20.706;2022-11-15T09:56:43;94.20;;;46.00;;
38653;SDS011;24413;52.450;20.706;2022-11-15T10:01:56;89.22;;;45.10;;
38653;SDS011;24413;52.450;20.706;2022-11-15T10:04:23;100.18;;;48.00;;
38653;SDS011;24413;52.450;20.706;2022-11-15T10:06:54;98.57;;;46.30;;
38653;SDS011;24413;52.450;20.706;2022-11-15T10:09:23;91.15;;;45.63;;
38653;SDS011;24413;52.450;20.706;2022-11-15T10:11:49;89.25;;;41.25;;
38653;SDS011;24413;52.450;20.706;2022-11-15T10:14:21;84.60;;;39.88;;
38653;SDS011;24413;52.450;20.706;2022-11-15T10:22:11;78.90;;;38.53;;
38653;SDS011;24413;52.450;20.706;2022-11-15T10:24:42;80.82;;;41.47;;
38653;SDS011;24413;52.450;20.706;2022-11-15T10:27:12;70.53;;;38.38;;
38653;SDS011;24413;52.450;20.706;2022-11-15T10:29:42;76.05;;;39.70;;
38653;SDS011;24413;52.450;20.706;2022-11-15T10:32:08;78.13;;;39.53;;
38653;SDS011;24413;52.450;20.706;2022-11-15T10:34:35;76.20;;;38.47;;
38653;SDS011;24413;52.450;20.706;2022-11-15T10:37:00;74.07;;;37.65;;
38653;SDS011;24413;52.450;20.706;2022-11-15T10:39:27;68.28;;;37.03;;
38653;SDS011;24413;52.450;20.706;2022-11-15T10:41:52;72.78;;;38.25;;
38653;SDS011;24413;52.450;20.706;2022-11-15T10:44:30;65.63;;;35.17;;
38653;SDS011;24413;52.450;20.706;2022-11-15T10:49:30;68.55;;;37.20;;
38653;SDS011;24413;52.450;20.706;2022-11-15T10:52:04;64.65;;;36.30;;
38653;SDS011;24413;52.450;20.706;2022-11-15T10:54:38;67.22;;;36.10;;
38653;SDS011;24413;52.450;20.706;2022-11-15T10:57:14;78.32;;;38.05;;
38653;SDS011;24413;52.450;20.706;2022-11-15T10:59:42;85.77;;;39.67;;
38653;SDS011;24413;52.450;20.706;2022-11-15T11:02:32;92.45;;;43.70;;
38653;SDS011;24413;52.450;20.706;2022-11-15T11:04:55;81.50;;;42.97;;
38653;SDS011;24413;52.450;20.706;2022-11-15T11:07:21;89.72;;;42.25;;
38653;SDS011;24413;52.450;20.706;2022-11-15T11:09:48;77.00;;;40.70;;
38653;SDS011;24413;52.450;20.706;2022-11-15T11:12:26;84.82;;;40.92;;
38653;SDS011;24413;52.450;20.706;2022-11-15T11:14:52;92.97;;;47.95;;
38653;SDS011;24413;52.450;20.706;2022-11-15T11:22:34;103.05;;;52.80;;
38653;SDS011;24413;52.450;20.706;2022-11-15T11:32:38;75.15;;;40.83;;
38653;SDS011;24413;52.450;20.706;2022-11-15T11:37:51;75.35;;;39.20;;
38653;SDS011;24413;52.450;20.706;2022-11-15T11:40:24;91.20;;;41.75;;
38653;SDS011;24413;52.450;20.706;2022-11-15T11:42:58;81.75;;;41.75;;
38653;SDS011;24413;52.450;20.706;2022-11-15T11:50:29;76.25;;;39.75;;
38653;SDS011;24413;52.450;20.706;2022-11-15T11:55:36;81.75;;;39.80;;
38653;SDS011;24413;52.450;20.706;2022-11-15T11:58:14;80.10;;;38.97;;
38653;SDS011;24413;52.450;20.706;2022-11-15T12:00:49;80.68;;;40.00;;
38653;SDS011;24413;52.450;20.706;2022-11-15T12:03:25;79.22;;;39.63;;
38653;SDS011;24413;52.450;20.706;2022-11-15T12:05:57;73.40;;;36.70;;
38653;SDS011;24413;52.450;20.706;2022-11-15T12:11:07;83.72;;;40.83;;
38653;SDS011;24413;52.450;20.706;2022-11-15T12:13:33;79.10;;;39.88;;
38653;SDS011;24413;52.450;20.706;2022-11-15T12:16:17;80.82;;;40.58;;
38653;SDS011;24413;52.450;20.706;2022-11-15T12:18:47;79.07;;;39.58;;
38653;SDS011;24413;52.450;20.706;2022-11-15T12:23:54;90.40;;;44.88;;
38653;SDS011;24413;52.450;20.706;2022-11-15T12:26:23;88.72;;;42.58;;
38653;SDS011;24413;52.450;20.706;2022-11-15T12:28:52;87.50;;;41.30;;
38653;SDS011;24413;52.450;20.706;2022-11-15T12:31:35;91.05;;;43.60;;
38653;SDS011;24413;52.450;20.706;2022-11-15T12:36:50;93.03;;;43.97;;
38653;SDS011;24413;52.450;20.706;2022-11-15T12:39:16;94.40;;;43.67;;
38653;SDS011;24413;52.450;20.706;2022-11-15T12:41:42;82.07;;;41.35;;
38653;SDS011;24413;52.450;20.706;2022-11-15T12:44:12;85.57;;;45.28;;
38653;SDS011;24413;52.450;20.706;2022-11-15T12:49:10;90.72;;;41.65;;
38653;SDS011;24413;52.450;20.706;2022-11-15T13:02:38;84.07;;;40.88;;
38653;SDS011;24413;52.450;20.706;2022-11-15T13:17:53;76.18;;;39.33;;
38653;SDS011;24413;52.450;20.706;2022-11-15T13:20:20;83.07;;;39.85;;
38653;SDS011;24413;52.450;20.706;2022-11-15T13:27:44;109.28;;;53.13;;
38653;SDS011;24413;52.450;20.706;2022-11-15T13:30:14;88.53;;;43.22;;
38653;SDS011;24413;52.450;20.706;2022-11-15T13:32:41;99.82;;;44.88;;
38653;SDS011;24413;52.450;20.706;2022-11-15T13:35:06;101.18;;;47.30;;
38653;SDS011;24413;52.450;20.706;2022-11-15T13:37:31;107.40;;;46.90;;
38653;SDS011;24413;52.450;20.706;2022-11-15T13:40:09;101.82;;;44.38;;
38653;SDS011;24413;52.450;20.706;2022-11-15T13:42:35;91.95;;;43.00;;
38653;SDS011;24413;52.450;20.706;2022-11-15T13:45:02;89.43;;;40.37;;
38653;SDS011;24413;52.450;20.706;2022-11-15T13:47:27;75.60;;;37.80;;
38653;SDS011;24413;52.450;20.706;2022-11-15T13:49:56;72.60;;;36.92;;
38653;SDS011;24413;52.450;20.706;2022-11-15T13:52:21;79.95;;;38.72;;
38653;SDS011;24413;52.450;20.706;2022-11-15T13:54:50;85.45;;;38.50;;
38653;SDS011;24413;52.450;20.706;2022-11-15T13:57:21;80.00;;;37.17;;
38653;SDS011;24413;52.450;20.706;2022-11-15T13:59:48;81.75;;;39.40;;
38653;SDS011;24413;52.450;20.706;2022-11-15T14:02:15;88.03;;;40.53;;
38653;SDS011;24413;52.450;20.706;2022-11-15T14:04:46;82.35;;;39.95;;
38653;SDS011;24413;52.450;20.706;2022-11-15T14:07:17;90.97;;;40.22;;
38653;SDS011;24413;52.450;20.706;2022-11-15T14:09:43;98.72;;;41.60;;
38653;SDS011;24413;52.450;20.706;2022-11-15T14:12:21;96.25;;;42.38;;
38653;SDS011;24413;52.450;20.706;2022-11-15T14:14:47;93.20;;;41.92;;
38653;SDS011;24413;52.450;20.706;2022-11-15T14:17:19;82.93;;;39.00;;
38653;SDS011;24413;52.450;20.706;2022-11-15T14:19:44;81.10;;;38.33;;
38653;SDS011;24413;52.450;20.706;2022-11-15T14:22:25;80.33;;;38.53;;
38653;SDS011;24413;52.450;20.706;2022-11-15T14:25:05;77.22;;;38.28;;
38653;SDS011;24413;52.450;20.706;2022-11-15T14:27:32;83.15;;;39.78;;
38653;SDS011;24413;52.450;20.706;2022-11-15T14:29:57;84.15;;;39.97;;
38653;SDS011;24413;52.450;20.706;2022-11-15T14:32:24;75.93;;;38.10;;
38653;SDS011;24413;52.450;20.706;2022-11-15T14:34:57;71.30;;;36.33;;
38653;SDS011;24413;52.450;20.706;2022-11-15T14:37:23;63.30;;;34.17;;
38653;SDS011;24413;52.450;20.706;2022-11-15T14:39:49;70.20;;;34.20;;
38653;SDS011;24413;52.450;20.706;2022-11-15T14:42:15;71.95;;;35.53;;
38653;SDS011;24413;52.450;20.706;2022-11-15T14:44:40;79.93;;;37.38;;
38653;SDS011;24413;52.450;20.706;2022-11-15T14:47:05;79.22;;;37.97;;
38653;SDS011;24413;52.450;20.706;2022-11-15T14:49:30;86.30;;;38.73;;
38653;SDS011;24413;52.450;20.706;2022-11-15T14:51:55;76.20;;;36.57;;
38653;SDS011;24413;52.450;20.706;2022-11-15T14:54:21;76.63;;;37.57;;
38653;SDS011;24413;52.450;20.706;2022-11-15T14:56:46;79.73;;;38.23;;
38653;SDS011;24413;52.450;20.706;2022-11-15T14:59:11;83.53;;;38.23;;
38653;SDS011;24413;52.450;20.706;2022-11-15T15:01:36;80.47;;;39.87;;
38653;SDS011;24413;52.450;20.706;2022-11-15T15:04:01;96.25;;;41.72;;
38653;SDS011;24413;52.450;20.706;2022-11-15T15:06:27;101.90;;;43.20;;
38653;SDS011;24413;52.450;20.706;2022-11-15T15:08:52;121.03;;;64.03;;
38653;SDS011;24413;52.450;20.706;2022-11-15T15:11:21;143.77;;;81.00;;
38653;SDS011;24413;52.450;20.706;2022-11-15T15:13:48;119.18;;;63.20;;
38653;SDS011;24413;52.450;20.706;2022-11-15T15:16:13;101.43;;;48.17;;
38653;SDS011;24413;52.450;20.706;2022-11-15T15:18:38;81.37;;;39.57;;
38653;SDS011;24413;52.450;20.706;2022-11-15T15:21:04;90.60;;;43.17;;
38653;SDS011;24413;52.450;20.706;2022-11-15T15:23:39;81.10;;;38.65;;
38653;SDS011;24413;52.450;20.706;2022-11-15T15:26:05;85.27;;;40.43;;
38653;SDS011;24413;52.450;20.706;2022-11-15T15:28:30;94.60;;;46.10;;
38653;SDS011;24413;52.450;20.706;2022-11-15T15:30:55;79.10;;;41.60;;
38653;SDS011;24413;52.450;20.706;2022-11-15T15:33:20;86.47;;;41.03;;
38653;SDS011;24413;52.450;20.706;2022-11-15T15:35:45;69.97;;;36.27;;
38653;SDS011;24413;52.450;20.706;2022-11-15T15:38:11;71.72;;;35.72;;
38653;SDS011;24413;52.450;20.706;2022-11-15T15:40:37;81.85;;;37.38;;
38653;SDS011;24413;52.450;20.706;2022-11-15T15:43:02;74.40;;;34.72;;
38653;SDS011;24413;52.450;20.706;2022-11-15T15:45:27;80.90;;;36.35;;
38653;SDS011;24413;52.450;20.706;2022-11-15T15:47:53;67.10;;;33.20;;
38653;SDS011;24413;52.450;20.706;2022-11-15T15:52:47;76.40;;;36.22;;